CST,Max TemperatureF,Mean TemperatureF,Min TemperatureF,Max Dew PointF,MeanDew PointF,Min DewpointF,Max Humidity, Mean Humidity, Min Humidity, Max Sea Level PressureIn, Mean Sea Level PressureIn, Min Sea Level PressureIn, Max VisibilityMiles, Mean VisibilityMiles, Min VisibilityMiles, Max Wind SpeedMPH, Mean Wind SpeedMPH, Max Gust SpeedMPH,PrecipitationIn, CloudCover, Events, WindDirDegrees
2012-2-1,69,56,42,46,42,39,100,82,43,30.17,30.09,30.04,10,10,10,10,2,,0.00,0,,3
2012-2-2,68,52,35,57,44,36,100,90,68,30.17,30.09,29.99,10,10,10,16,4,26,0.00,3,,89
2012-2-3,71,61,50,66,58,46,100,93,82,30.05,29.96,29.85,10,9,2,23,11,28,0.00,7,Rain-Thunderstorm,161
2012-2-4,50,46,41,46,38,34,93,79,62,30.35,30.20,30.05,10,10,10,20,11,29,0.00,4,,328
2012-2-5,48,40,32,36,32,30,100,80,58,30.43,30.35,30.34,10,10,10,18,12,24,0.00,5,,346
2012-2-6,55,42,28,39,33,28,100,88,44,30.37,30.30,30.19,10,10,2,4,0,,0.00,1,,130
2012-2-7,55,48,41,43,40,37,100,83,58,30.41,30.26,30.19,10,10,10,15,3,23,0.00,6,,359
2012-2-8,42,40,37,36,34,32,87,82,66,30.50,30.42,30.36,10,10,10,15,9,20,0.00,8,,10
2012-2-9,46,37,28,43,35,28,100,91,71,30.36,30.26,30.11,10,8,3,8,3,,0.09,4,Rain,105
2012-2-10,48,40,30,43,36,21,100,88,62,30.40,30.19,30.09,10,7,3,17,8,24,0.07,5,Rain,351
2012-2-11,30,26,23,21,15,12,69,60,47,30.65,30.54,30.41,10,10,10,16,9,25,0.00,0,,15
2012-2-12,41,32,23,32,19,14,100,71,42,30.65,30.49,30.22,10,8,2,13,5,25,0.02,5,Snow,80
2012-2-13,41,36,32,41,35,32,100,98,93,30.22,30.01,29.83,10,5,0,12,6,16,0.03,8,Fog-Rain-Snow,156
2012-2-14,50,44,37,46,42,37,100,99,87,29.97,29.91,29.86,10,2,0,10,5,,0.00,8,Fog,130
2012-2-15,69,58,46,59,46,34,100,87,27,30.07,29.93,29.81,10,6,0,17,8,20,0.00,5,Fog,112
2012-2-16,57,49,41,45,41,39,93,86,63,30.30,30.19,30.10,10,10,7,15,7,21,0.00,3,,12
2012-2-17,59,49,39,50,44,37,100,89,72,30.17,30.11,30.03,10,8,4,8,2,,0.00,3,,88
2012-2-18,53,46,39,50,45,37,100,86,72,30.08,30.02,29.95,10,10,5,15,5,20,0.05,6,Rain,38
2012-2-19,44,40,35,41,38,36,100,96,87,30.12,30.07,30.01,10,9,5,9,5,,0.00,3,,357
2012-2-20,62,50,37,52,39,25,100,81,27,30.10,29.99,29.77,10,8,4,28,8,39,0.00,1,,161
2012-2-21,68,49,30,39,32,27,93,71,28,30.15,30.01,29.84,10,10,10,16,3,23,0.00,0,,160
2012-2-22,71,53,35,41,38,34,100,83,31,29.83,29.69,29.50,10,10,10,12,1,,0.00,0,,246
2012-2-23,75,58,42,43,36,28,81,55,29,29.92,29.52,29.32,10,10,10,22,5,29,0.00,0,,316
2012-2-24,57,44,32,30,25,21,93,52,26,30.34,30.15,29.93,10,10,10,23,15,34,0.00,0,,349
2012-2-25,64,46,28,32,28,25,100,74,22,30.37,30.27,30.11,10,10,10,13,2,25,0.00,0,,170
2012-2-26,64,50,35,45,35,28,93,68,49,30.17,30.11,30.00,10,10,10,17,7,23,0.00,0,,141
2012-2-27,64,52,41,50,47,41,100,82,59,30.33,30.22,30.18,10,10,4,12,2,,0.00,6,,101
2012-2-28,69,62,55,63,55,50,94,78,68,30.17,30.01,29.77,10,10,7,18,8,28,0.00,5,,147
2012-2-29,71,55,39,52,37,30,87,59,22,30.02,29.93,29.87,10,10,7,10,4,,0.00,2,,255